Terminal Aerodrome Forecast
Issued by NWS Duluth, MN

Home | Current Version | Previous Version | Text Only | Print | Product List | Glossary On
Versions: 1 2 3 4 5 6 7 8 9 10 11 12 13 14 15 16 17 18
927
FTUS43 KDLH 272340
TAFINL
TAF
KINL 272340Z 2800/2824 VRB03KT P6SM OVC250
     FM280100 09004KT P6SM -SHRA OVC100
     FM280800 03003KT P6SM -SHRA BKN012 OVC040
     FM281100 04005KT 3SM -DZ OVC007
     FM282000 02005KT P6SM OVC014=

USA.gov is the U.S. government's official web portal to all federal, state and local government web resources and services.